sensor_id;sensor_type;location;lat;lon;timestamp;temperature;humidity
43089;DHT22;28709;52.030;5.652;2024-03-23T00:54:23;7.60;99.90
43089;DHT22;28709;52.030;5.652;2024-03-23T00:56:48;7.60;99.90
43089;DHT22;28709;52.030;5.652;2024-03-23T00:59:14;7.50;99.90
43089;DHT22;28709;52.030;5.652;2024-03-23T01:01:40;7.50;99.90
43089;DHT22;28709;52.030;5.652;2024-03-23T01:04:05;7.50;99.90
43089;DHT22;28709;52.030;5.652;2024-03-23T01:06:31;7.50;99.90
43089;DHT22;28709;52.030;5.652;2024-03-23T01:08:56;7.50;99.90
43089;DHT22;28709;52.030;5.652;2024-03-23T01:11:22;7.50;99.90
43089;DHT22;28709;52.030;5.652;2024-03-23T01:13:48;7.50;99.90
43089;DHT22;28709;52.030;5.652;2024-03-23T01:16:13;7.50;99.90
43089;DHT22;28709;52.030;5.652;2024-03-23T01:18:39;7.50;99.90
43089;DHT22;28709;52.030;5.652;2024-03-23T01:21:05;7.50;99.90
43089;DHT22;28709;52.030;5.652;2024-03-23T01:23:30;7.50;99.90
43089;DHT22;28709;52.030;5.652;2024-03-23T01:25:56;7.50;99.90
43089;DHT22;28709;52.030;5.652;2024-03-23T01:28:22;7.50;99.90
43089;DHT22;28709;52.030;5.652;2024-03-23T01:30:48;7.50;99.90
43089;DHT22;28709;52.030;5.652;2024-03-23T01:33:14;7.50;99.90
43089;DHT22;28709;52.030;5.652;2024-03-23T01:35:39;7.50;99.90
43089;DHT22;28709;52.030;5.652;2024-03-23T01:38:05;7.50;99.90
43089;DHT22;28709;52.030;5.652;2024-03-23T01:40:32;7.50;99.90
43089;DHT22;28709;52.030;5.652;2024-03-23T01:43:01;7.50;99.90
43089;DHT22;28709;52.030;5.652;2024-03-23T01:45:29;7.50;99.90
43089;DHT22;28709;52.030;5.652;2024-03-23T01:47:55;7.50;99.90
43089;DHT22;28709;52.030;5.652;2024-03-23T01:50:21;7.50;99.90
43089;DHT22;28709;52.030;5.652;2024-03-23T01:52:47;7.50;99.90
43089;DHT22;28709;52.030;5.652;2024-03-23T01:55:13;7.50;99.90
43089;DHT22;28709;52.030;5.652;2024-03-23T01:57:39;7.50;99.90
43089;DHT22;28709;52.030;5.652;2024-03-23T02:00:05;7.50;99.90
43089;DHT22;28709;52.030;5.652;2024-03-23T02:02:31;7.50;99.90
43089;DHT22;28709;52.030;5.652;2024-03-23T02:04:57;7.60;99.90
43089;DHT22;28709;52.030;5.652;2024-03-23T02:07:23;7.50;99.90
43089;DHT22;28709;52.030;5.652;2024-03-23T02:09:53;7.50;99.90
43089;DHT22;28709;52.030;5.652;2024-03-23T02:12:20;7.50;99.90
43089;DHT22;28709;52.030;5.652;2024-03-23T02:14:46;7.50;99.90
43089;DHT22;28709;52.030;5.652;2024-03-23T02:17:12;7.50;99.90
43089;DHT22;28709;52.030;5.652;2024-03-23T02:19:39;7.40;99.90
43089;DHT22;28709;52.030;5.652;2024-03-23T02:22:04;7.30;99.90
43089;DHT22;28709;52.030;5.652;2024-03-23T02:24:30;7.30;99.90
43089;DHT22;28709;52.030;5.652;2024-03-23T02:26:56;7.30;99.90
43089;DHT22;28709;52.030;5.652;2024-03-23T02:29:21;7.20;99.90
43089;DHT22;28709;52.030;5.652;2024-03-23T02:31:47;7.20;99.90
43089;DHT22;28709;52.030;5.652;2024-03-23T02:34:13;7.10;99.90
43089;DHT22;28709;52.030;5.652;2024-03-23T02:36:38;7.00;99.90
43089;DHT22;28709;52.030;5.652;2024-03-23T02:39:04;7.00;99.90
43089;DHT22;28709;52.030;5.652;2024-03-23T02:41:30;6.90;99.90
43089;DHT22;28709;52.030;5.652;2024-03-23T02:43:56;6.90;99.90
43089;DHT22;28709;52.030;5.652;2024-03-23T02:46:21;6.80;99.90
43089;DHT22;28709;52.030;5.652;2024-03-23T02:48:48;6.80;99.90
43089;DHT22;28709;52.030;5.652;2024-03-23T02:51:14;6.70;99.90
43089;DHT22;28709;52.030;5.652;2024-03-23T02:53:40;6.70;99.90
43089;DHT22;28709;52.030;5.652;2024-03-23T02:56:06;6.70;99.90
43089;DHT22;28709;52.030;5.652;2024-03-23T02:58:32;6.60;99.90
43089;DHT22;28709;52.030;5.652;2024-03-23T03:00:58;6.60;99.90
43089;DHT22;28709;52.030;5.652;2024-03-23T03:03:24;6.60;99.90
43089;DHT22;28709;52.030;5.652;2024-03-23T03:05:56;6.50;99.90
43089;DHT22;28709;52.030;5.652;2024-03-23T03:08:22;6.50;99.90
43089;DHT22;28709;52.030;5.652;2024-03-23T03:10:48;6.50;99.90
43089;DHT22;28709;52.030;5.652;2024-03-23T03:13:13;6.50;99.90
43089;DHT22;28709;52.030;5.652;2024-03-23T03:15:43;6.50;99.90
43089;DHT22;28709;52.030;5.652;2024-03-23T03:18:08;6.50;99.90
43089;DHT22;28709;52.030;5.652;2024-03-23T03:20:40;6.40;99.90
43089;DHT22;28709;52.030;5.652;2024-03-23T03:23:06;6.40;99.90
43089;DHT22;28709;52.030;5.652;2024-03-23T03:25:32;6.40;99.90
43089;DHT22;28709;52.030;5.652;2024-03-23T03:27:58;6.40;99.90
43089;DHT22;28709;52.030;5.652;2024-03-23T03:30:24;6.40;99.90
43089;DHT22;28709;52.030;5.652;2024-03-23T03:32:53;6.30;99.90
43089;DHT22;28709;52.030;5.652;2024-03-23T03:35:19;6.30;99.90
43089;DHT22;28709;52.030;5.652;2024-03-23T03:37:44;6.30;99.90
43089;DHT22;28709;52.030;5.652;2024-03-23T03:40:11;6.30;99.90
43089;DHT22;28709;52.030;5.652;2024-03-23T03:42:37;6.30;99.90
43089;DHT22;28709;52.030;5.652;2024-03-23T03:45:03;6.20;99.90
43089;DHT22;28709;52.030;5.652;2024-03-23T03:47:30;6.20;99.90
43089;DHT22;28709;52.030;5.652;2024-03-23T03:49:55;6.20;99.90
43089;DHT22;28709;52.030;5.652;2024-03-23T03:52:21;6.10;99.90
43089;DHT22;28709;52.030;5.652;2024-03-23T03:54:47;6.10;99.90
43089;DHT22;28709;52.030;5.652;2024-03-23T03:57:12;6.00;99.90
43089;DHT22;28709;52.030;5.652;2024-03-23T03:59:38;6.00;99.90
43089;DHT22;28709;52.030;5.652;2024-03-23T04:02:03;6.00;99.90
43089;DHT22;28709;52.030;5.652;2024-03-23T04:04:29;6.00;99.90
43089;DHT22;28709;52.030;5.652;2024-03-23T04:07:02;5.90;99.90
43089;DHT22;28709;52.030;5.652;2024-03-23T04:09:27;5.90;99.90
43089;DHT22;28709;52.030;5.652;2024-03-23T04:11:53;5.80;99.90
43089;DHT22;28709;52.030;5.652;2024-03-23T04:14:19;5.80;99.90
43089;DHT22;28709;52.030;5.652;2024-03-23T04:16:45;5.80;99.90
43089;DHT22;28709;52.030;5.652;2024-03-23T04:19:10;5.70;99.90
43089;DHT22;28709;52.030;5.652;2024-03-23T04:21:37;5.80;99.90
43089;DHT22;28709;52.030;5.652;2024-03-23T04:24:03;5.70;99.90
43089;DHT22;28709;52.030;5.652;2024-03-23T04:26:29;5.70;99.90
43089;DHT22;28709;52.030;5.652;2024-03-23T04:28:54;5.70;99.90
43089;DHT22;28709;52.030;5.652;2024-03-23T04:31:20;5.60;99.90
43089;DHT22;28709;52.030;5.652;2024-03-23T04:33:47;5.60;99.90
43089;DHT22;28709;52.030;5.652;2024-03-23T04:36:12;5.60;99.90
43089;DHT22;28709;52.030;5.652;2024-03-23T04:38:38;5.60;99.90
43089;DHT22;28709;52.030;5.652;2024-03-23T04:41:04;5.50;99.90
43089;DHT22;28709;52.030;5.652;2024-03-23T04:43:29;5.50;99.90
43089;DHT22;28709;52.030;5.652;2024-03-23T04:45:55;5.50;99.90
43089;DHT22;28709;52.030;5.652;2024-03-23T04:48:21;5.40;99.90
43089;DHT22;28709;52.030;5.652;2024-03-23T04:50:48;5.40;99.90
43089;DHT22;28709;52.030;5.652;2024-03-23T04:53:15;5.40;99.90
43089;DHT22;28709;52.030;5.652;2024-03-23T04:55:41;5.40;99.90
43089;DHT22;28709;52.030;5.652;2024-03-23T04:58:07;5.30;99.90
43089;DHT22;28709;52.030;5.652;2024-03-23T05:00:33;5.30;99.90
43089;DHT22;28709;52.030;5.652;2024-03-23T05:02:58;5.20;99.90
43089;DHT22;28709;52.030;5.652;2024-03-23T05:05:24;5.30;99.90
43089;DHT22;28709;52.030;5.652;2024-03-23T05:07:49;5.30;99.90
43089;DHT22;28709;52.030;5.652;2024-03-23T05:10:15;5.20;99.90
43089;DHT22;28709;52.030;5.652;2024-03-23T05:12:42;5.20;99.90
43089;DHT22;28709;52.030;5.652;2024-03-23T05:15:07;5.20;99.90
43089;DHT22;28709;52.030;5.652;2024-03-23T05:17:33;5.20;99.90
43089;DHT22;28709;52.030;5.652;2024-03-23T05:19:59;5.20;99.90
43089;DHT22;28709;52.030;5.652;2024-03-23T05:22:25;5.20;99.90
43089;DHT22;28709;52.030;5.652;2024-03-23T05:24:50;5.20;99.90
43089;DHT22;28709;52.030;5.652;2024-03-23T05:27:16;5.10;99.90
43089;DHT22;28709;52.030;5.652;2024-03-23T05:29:41;5.10;99.90
43089;DHT22;28709;52.030;5.652;2024-03-23T05:32:07;5.00;99.90
43089;DHT22;28709;52.030;5.652;2024-03-23T05:34:33;5.00;99.90
43089;DHT22;28709;52.030;5.652;2024-03-23T05:36:59;5.00;99.90
43089;DHT22;28709;52.030;5.652;2024-03-23T05:39:25;4.90;99.90
43089;DHT22;28709;52.030;5.652;2024-03-23T05:41:50;4.90;99.90
43089;DHT22;28709;52.030;5.652;2024-03-23T05:44:16;4.90;99.90
43089;DHT22;28709;52.030;5.652;2024-03-23T05:46:42;4.90;99.90
43089;DHT22;28709;52.030;5.652;2024-03-23T05:49:08;4.90;99.90
43089;DHT22;28709;52.030;5.652;2024-03-23T05:51:34;4.90;99.90
43089;DHT22;28709;52.030;5.652;2024-03-23T05:54:00;4.90;99.90
43089;DHT22;28709;52.030;5.652;2024-03-23T05:56:26;4.90;99.90
43089;DHT22;28709;52.030;5.652;2024-03-23T05:58:52;4.90;99.90
43089;DHT22;28709;52.030;5.652;2024-03-23T06:01:18;5.00;99.90
43089;DHT22;28709;52.030;5.652;2024-03-23T06:03:43;5.10;99.90
43089;DHT22;28709;52.030;5.652;2024-03-23T06:06:10;5.20;99.90
43089;DHT22;28709;52.030;5.652;2024-03-23T06:08:38;5.20;99.90
43089;DHT22;28709;52.030;5.652;2024-03-23T06:11:04;5.30;99.90
43089;DHT22;28709;52.030;5.652;2024-03-23T06:13:33;5.40;99.90
43089;DHT22;28709;52.030;5.652;2024-03-23T06:16:02;5.50;99.90
43089;DHT22;28709;52.030;5.652;2024-03-23T06:18:28;5.50;99.90
43089;DHT22;28709;52.030;5.652;2024-03-23T06:20:54;5.60;99.90
43089;DHT22;28709;52.030;5.652;2024-03-23T06:23:20;5.70;99.90
43089;DHT22;28709;52.030;5.652;2024-03-23T06:25:46;5.70;99.90
43089;DHT22;28709;52.030;5.652;2024-03-23T06:28:12;5.80;99.90
43089;DHT22;28709;52.030;5.652;2024-03-23T06:30:38;5.80;99.90
43089;DHT22;28709;52.030;5.652;2024-03-23T06:33:04;5.90;99.90
43089;DHT22;28709;52.030;5.652;2024-03-23T06:35:31;6.00;99.90
43089;DHT22;28709;52.030;5.652;2024-03-23T06:37:57;6.20;99.90
43089;DHT22;28709;52.030;5.652;2024-03-23T06:40:23;6.20;99.90
43089;DHT22;28709;52.030;5.652;2024-03-23T06:42:49;6.30;99.90
43089;DHT22;28709;52.030;5.652;2024-03-23T06:45:16;6.30;99.90
43089;DHT22;28709;52.030;5.652;2024-03-23T06:47:41;6.30;99.90
43089;DHT22;28709;52.030;5.652;2024-03-23T06:50:07;6.40;99.90
43089;DHT22;28709;52.030;5.652;2024-03-23T06:52:33;6.70;99.90
43089;DHT22;28709;52.030;5.652;2024-03-23T06:54:58;7.10;99.90
43089;DHT22;28709;52.030;5.652;2024-03-23T06:57:24;7.50;99.90
43089;DHT22;28709;52.030;5.652;2024-03-23T06:59:50;8.10;99.90
43089;DHT22;28709;52.030;5.652;2024-03-23T07:02:16;8.60;99.90
43089;DHT22;28709;52.030;5.652;2024-03-23T07:04:42;9.00;99.90
43089;DHT22;28709;52.030;5.652;2024-03-23T07:07:07;9.20;99.90
43089;DHT22;28709;52.030;5.652;2024-03-23T07:09:33;9.50;99.90
43089;DHT22;28709;52.030;5.652;2024-03-23T07:11:59;9.60;99.90
43089;DHT22;28709;52.030;5.652;2024-03-23T07:14:25;9.60;99.90
43089;DHT22;28709;52.030;5.652;2024-03-23T07:16:51;9.60;99.90
43089;DHT22;28709;52.030;5.652;2024-03-23T07:19:17;9.60;99.90
43089;DHT22;28709;52.030;5.652;2024-03-23T07:21:43;9.60;99.90
43089;DHT22;28709;52.030;5.652;2024-03-23T07:24:10;9.60;99.90
43089;DHT22;28709;52.030;5.652;2024-03-23T07:26:36;9.70;99.90
43089;DHT22;28709;52.030;5.652;2024-03-23T07:29:02;9.70;99.90
43089;DHT22;28709;52.030;5.652;2024-03-23T07:31:27;9.70;99.90
43089;DHT22;28709;52.030;5.652;2024-03-23T07:33:53;9.70;99.90
43089;DHT22;28709;52.030;5.652;2024-03-23T07:36:19;9.70;99.90
43089;DHT22;28709;52.030;5.652;2024-03-23T07:38:44;9.70;99.90
43089;DHT22;28709;52.030;5.652;2024-03-23T07:41:12;9.80;99.90
43089;DHT22;28709;52.030;5.652;2024-03-23T07:43:39;9.80;99.90
43089;DHT22;28709;52.030;5.652;2024-03-23T07:46:08;9.90;99.90
43089;DHT22;28709;52.030;5.652;2024-03-23T07:48:34;10.20;99.90
43089;DHT22;28709;52.030;5.652;2024-03-23T07:51:21;10.30;99.90
43089;DHT22;28709;52.030;5.652;2024-03-23T07:53:46;10.50;99.90
43089;DHT22;28709;52.030;5.652;2024-03-23T07:56:14;10.70;99.90
43089;DHT22;28709;52.030;5.652;2024-03-23T07:58:44;11.10;99.90
43089;DHT22;28709;52.030;5.652;2024-03-23T08:01:11;11.50;99.90
43089;DHT22;28709;52.030;5.652;2024-03-23T08:03:40;11.70;99.90
43089;DHT22;28709;52.030;5.652;2024-03-23T08:06:19;11.60;99.90
43089;DHT22;28709;52.030;5.652;2024-03-23T08:08:46;11.40;99.90
43089;DHT22;28709;52.030;5.652;2024-03-23T08:11:12;11.30;99.90
43089;DHT22;28709;52.030;5.652;2024-03-23T08:13:40;11.20;99.90
43089;DHT22;28709;52.030;5.652;2024-03-23T08:16:06;11.40;99.90
43089;DHT22;28709;52.030;5.652;2024-03-23T08:18:32;11.30;99.90
43089;DHT22;28709;52.030;5.652;2024-03-23T08:21:02;11.40;99.90
43089;DHT22;28709;52.030;5.652;2024-03-23T08:23:29;11.40;99.90
43089;DHT22;28709;52.030;5.652;2024-03-23T08:25:59;11.10;99.90
43089;DHT22;28709;52.030;5.652;2024-03-23T08:28:25;11.00;99.90
43089;DHT22;28709;52.030;5.652;2024-03-23T08:30:52;10.60;99.90
43089;DHT22;28709;52.030;5.652;2024-03-23T08:33:17;10.20;99.90
43089;DHT22;28709;52.030;5.652;2024-03-23T08:36:02;9.80;99.90
43089;DHT22;28709;52.030;5.652;2024-03-23T08:38:28;9.40;99.90
43089;DHT22;28709;52.030;5.652;2024-03-23T08:40:58;9.10;99.90
43089;DHT22;28709;52.030;5.652;2024-03-23T08:43:24;8.90;99.90
43089;DHT22;28709;52.030;5.652;2024-03-23T08:45:50;8.80;99.90
43089;DHT22;28709;52.030;5.652;2024-03-23T08:48:16;8.60;99.90
43089;DHT22;28709;52.030;5.652;2024-03-23T08:50:41;8.50;99.90
43089;DHT22;28709;52.030;5.652;2024-03-23T08:53:08;8.40;99.90
43089;DHT22;28709;52.030;5.652;2024-03-23T08:55:33;8.30;99.90
43089;DHT22;28709;52.030;5.652;2024-03-23T08:57:59;8.20;99.90
43089;DHT22;28709;52.030;5.652;2024-03-23T09:00:26;8.40;99.90
43089;DHT22;28709;52.030;5.652;2024-03-23T09:02:51;8.60;99.90
43089;DHT22;28709;52.030;5.652;2024-03-23T09:05:17;8.70;99.90
43089;DHT22;28709;52.030;5.652;2024-03-23T09:07:42;8.60;99.90
43089;DHT22;28709;52.030;5.652;2024-03-23T09:10:08;8.60;99.90
43089;DHT22;28709;52.030;5.652;2024-03-23T09:12:34;8.60;99.90
43089;DHT22;28709;52.030;5.652;2024-03-23T09:14:59;9.10;99.90
43089;DHT22;28709;52.030;5.652;2024-03-23T09:17:25;9.70;99.90
43089;DHT22;28709;52.030;5.652;2024-03-23T09:19:51;10.50;99.90
43089;DHT22;28709;52.030;5.652;2024-03-23T09:22:16;11.20;99.90
43089;DHT22;28709;52.030;5.652;2024-03-23T09:24:42;11.60;99.90
43089;DHT22;28709;52.030;5.652;2024-03-23T09:27:07;12.10;99.90
43089;DHT22;28709;52.030;5.652;2024-03-23T09:29:33;12.60;99.90
43089;DHT22;28709;52.030;5.652;2024-03-23T09:31:59;13.10;99.90
43089;DHT22;28709;52.030;5.652;2024-03-23T09:34:24;13.40;99.90
43089;DHT22;28709;52.030;5.652;2024-03-23T09:36:53;13.70;99.90
43089;DHT22;28709;52.030;5.652;2024-03-23T09:39:19;14.10;99.90
43089;DHT22;28709;52.030;5.652;2024-03-23T09:41:45;14.60;99.90
43089;DHT22;28709;52.030;5.652;2024-03-23T09:44:11;14.80;99.90
43089;DHT22;28709;52.030;5.652;2024-03-23T09:46:36;14.20;99.90
43089;DHT22;28709;52.030;5.652;2024-03-23T09:49:07;13.40;99.90
43089;DHT22;28709;52.030;5.652;2024-03-23T09:51:36;12.20;99.90
43089;DHT22;28709;52.030;5.652;2024-03-23T09:54:02;11.10;99.90
43089;DHT22;28709;52.030;5.652;2024-03-23T09:56:27;10.20;99.90
43089;DHT22;28709;52.030;5.652;2024-03-23T09:59:03;9.60;99.90
43089;DHT22;28709;52.030;5.652;2024-03-23T10:01:32;9.10;99.90
43089;DHT22;28709;52.030;5.652;2024-03-23T10:03:58;9.10;99.90
43089;DHT22;28709;52.030;5.652;2024-03-23T10:06:24;9.70;99.90
43089;DHT22;28709;52.030;5.652;2024-03-23T10:08:53;10.60;99.90
43089;DHT22;28709;52.030;5.652;2024-03-23T10:11:20;11.50;99.90
43089;DHT22;28709;52.030;5.652;2024-03-23T10:13:47;12.20;99.90
43089;DHT22;28709;52.030;5.652;2024-03-23T10:16:21;12.60;99.90
43089;DHT22;28709;52.030;5.652;2024-03-23T10:18:47;12.40;99.90
43089;DHT22;28709;52.030;5.652;2024-03-23T10:21:14;11.80;99.90
43089;DHT22;28709;52.030;5.652;2024-03-23T10:23:43;11.30;99.90
43089;DHT22;28709;52.030;5.652;2024-03-23T10:26:16;10.80;99.90
43089;DHT22;28709;52.030;5.652;2024-03-23T10:28:52;10.50;99.90
43089;DHT22;28709;52.030;5.652;2024-03-23T10:31:19;11.10;99.90
43089;DHT22;28709;52.030;5.652;2024-03-23T10:33:46;11.90;99.90
43089;DHT22;28709;52.030;5.652;2024-03-23T10:36:12;12.40;99.90
43089;DHT22;28709;52.030;5.652;2024-03-23T10:38:40;12.50;99.90
43089;DHT22;28709;52.030;5.652;2024-03-23T10:41:09;12.20;99.90
43089;DHT22;28709;52.030;5.652;2024-03-23T10:43:39;11.60;99.90
43089;DHT22;28709;52.030;5.652;2024-03-23T10:46:05;10.90;99.90
43089;DHT22;28709;52.030;5.652;2024-03-23T10:48:32;10.50;99.90
43089;DHT22;28709;52.030;5.652;2024-03-23T10:50:58;10.20;99.90
43089;DHT22;28709;52.030;5.652;2024-03-23T10:53:28;10.00;99.90
43089;DHT22;28709;52.030;5.652;2024-03-23T10:55:55;10.20;99.90
43089;DHT22;28709;52.030;5.652;2024-03-23T11:00:56;11.70;99.90
43089;DHT22;28709;52.030;5.652;2024-03-23T11:03:30;12.30;99.90
43089;DHT22;28709;52.030;5.652;2024-03-23T11:05:56;12.90;99.90
43089;DHT22;28709;52.030;5.652;2024-03-23T11:08:38;13.50;99.90
43089;DHT22;28709;52.030;5.652;2024-03-23T11:11:20;14.10;99.90
43089;DHT22;28709;52.030;5.652;2024-03-23T11:13:53;13.70;99.90
43089;DHT22;28709;52.030;5.652;2024-03-23T11:16:26;12.30;99.90
43089;DHT22;28709;52.030;5.652;2024-03-23T11:19:34;11.20;99.90
43089;DHT22;28709;52.030;5.652;2024-03-23T11:22:00;11.50;99.90
43089;DHT22;28709;52.030;5.652;2024-03-23T11:24:26;12.20;99.90
43089;DHT22;28709;52.030;5.652;2024-03-23T11:26:52;12.90;99.90
43089;DHT22;28709;52.030;5.652;2024-03-23T11:29:18;13.40;99.90
43089;DHT22;28709;52.030;5.652;2024-03-23T11:31:52;14.00;99.90
43089;DHT22;28709;52.030;5.652;2024-03-23T11:34:21;13.80;99.90
43089;DHT22;28709;52.030;5.652;2024-03-23T11:36:48;13.00;99.90
43089;DHT22;28709;52.030;5.652;2024-03-23T11:39:18;12.20;99.90
43089;DHT22;28709;52.030;5.652;2024-03-23T11:41:51;11.50;99.90
43089;DHT22;28709;52.030;5.652;2024-03-23T11:44:18;11.00;99.90
43089;DHT22;28709;52.030;5.652;2024-03-23T11:46:44;10.50;99.90
43089;DHT22;28709;52.030;5.652;2024-03-23T11:49:22;10.00;99.90
43089;DHT22;28709;52.030;5.652;2024-03-23T11:51:49;9.60;99.90
43089;DHT22;28709;52.030;5.652;2024-03-23T11:54:15;9.30;99.90
43089;DHT22;28709;52.030;5.652;2024-03-23T11:56:53;9.00;99.90
43089;DHT22;28709;52.030;5.652;2024-03-23T11:59:38;8.80;99.90
43089;DHT22;28709;52.030;5.652;2024-03-23T12:02:07;8.60;99.90
43089;DHT22;28709;52.030;5.652;2024-03-23T12:04:33;9.10;99.90
43089;DHT22;28709;52.030;5.652;2024-03-23T12:09:40;11.50;99.90
43089;DHT22;28709;52.030;5.652;2024-03-23T12:12:18;12.50;99.90
43089;DHT22;28709;52.030;5.652;2024-03-23T12:14:45;13.30;99.90
43089;DHT22;28709;52.030;5.652;2024-03-23T12:17:15;13.90;99.90
43089;DHT22;28709;52.030;5.652;2024-03-23T12:19:41;14.50;99.90
43089;DHT22;28709;52.030;5.652;2024-03-23T12:22:10;14.20;99.90
43089;DHT22;28709;52.030;5.652;2024-03-23T12:24:35;13.90;99.90
43089;DHT22;28709;52.030;5.652;2024-03-23T12:27:05;13.30;99.90
43089;DHT22;28709;52.030;5.652;2024-03-23T12:29:31;13.30;99.50
43089;DHT22;28709;52.030;5.652;2024-03-23T12:32:01;13.30;99.90
43089;DHT22;28709;52.030;5.652;2024-03-23T12:34:27;13.40;99.70
43089;DHT22;28709;52.030;5.652;2024-03-23T12:36:54;12.90;99.90
43089;DHT22;28709;52.030;5.652;2024-03-23T12:39:20;12.30;99.40
43089;DHT22;28709;52.030;5.652;2024-03-23T12:41:49;11.70;99.50
43089;DHT22;28709;52.030;5.652;2024-03-23T12:44:14;11.40;99.90
43089;DHT22;28709;52.030;5.652;2024-03-23T12:46:41;11.50;99.90
43089;DHT22;28709;52.030;5.652;2024-03-23T12:49:07;12.20;99.90
43089;DHT22;28709;52.030;5.652;2024-03-23T12:51:33;13.10;99.50
43089;DHT22;28709;52.030;5.652;2024-03-23T12:53:59;13.50;97.90
43089;DHT22;28709;52.030;5.652;2024-03-23T12:56:25;13.20;98.10
43089;DHT22;28709;52.030;5.652;2024-03-23T12:58:50;12.80;98.20
43089;DHT22;28709;52.030;5.652;2024-03-23T13:01:20;12.20;98.10
43089;DHT22;28709;52.030;5.652;2024-03-23T13:03:49;11.60;98.10
43089;DHT22;28709;52.030;5.652;2024-03-23T13:06:19;11.00;98.60
43089;DHT22;28709;52.030;5.652;2024-03-23T13:08:45;11.00;99.70
43089;DHT22;28709;52.030;5.652;2024-03-23T13:11:11;11.60;98.80
43089;DHT22;28709;52.030;5.652;2024-03-23T13:13:37;11.70;98.50
43089;DHT22;28709;52.030;5.652;2024-03-23T13:16:04;11.60;99.50
43089;DHT22;28709;52.030;5.652;2024-03-23T13:18:31;12.10;99.90
43089;DHT22;28709;52.030;5.652;2024-03-23T13:20:56;13.00;98.90
43089;DHT22;28709;52.030;5.652;2024-03-23T13:23:22;13.60;97.40
43089;DHT22;28709;52.030;5.652;2024-03-23T13:25:55;13.90;98.10
43089;DHT22;28709;52.030;5.652;2024-03-23T13:28:24;14.00;98.70
43089;DHT22;28709;52.030;5.652;2024-03-23T13:30:53;14.40;98.50
43089;DHT22;28709;52.030;5.652;2024-03-23T13:33:20;14.50;97.30
43089;DHT22;28709;52.030;5.652;2024-03-23T13:35:52;14.20;96.00
43089;DHT22;28709;52.030;5.652;2024-03-23T13:38:19;13.80;96.30
43089;DHT22;28709;52.030;5.652;2024-03-23T13:40:51;13.00;96.80
43089;DHT22;28709;52.030;5.652;2024-03-23T13:43:17;12.30;97.30
43089;DHT22;28709;52.030;5.652;2024-03-23T13:45:42;11.70;98.50
43089;DHT22;28709;52.030;5.652;2024-03-23T13:48:08;11.20;99.40
43089;DHT22;28709;52.030;5.652;2024-03-23T13:50:34;10.80;99.90
43089;DHT22;28709;52.030;5.652;2024-03-23T13:53:00;10.40;99.90
43089;DHT22;28709;52.030;5.652;2024-03-23T13:55:25;10.00;99.90
43089;DHT22;28709;52.030;5.652;2024-03-23T13:57:51;9.70;99.90
43089;DHT22;28709;52.030;5.652;2024-03-23T14:00:17;9.50;99.90
43089;DHT22;28709;52.030;5.652;2024-03-23T14:02:44;9.30;99.90
43089;DHT22;28709;52.030;5.652;2024-03-23T14:05:09;9.30;99.90
43089;DHT22;28709;52.030;5.652;2024-03-23T14:07:36;9.40;99.90
43089;DHT22;28709;52.030;5.652;2024-03-23T14:10:05;9.60;99.90
43089;DHT22;28709;52.030;5.652;2024-03-23T14:12:36;9.70;99.90
43089;DHT22;28709;52.030;5.652;2024-03-23T14:15:05;9.70;99.90
43089;DHT22;28709;52.030;5.652;2024-03-23T14:17:31;9.60;99.90
43089;DHT22;28709;52.030;5.652;2024-03-23T14:19:57;9.50;99.90
43089;DHT22;28709;52.030;5.652;2024-03-23T14:22:29;9.20;99.90
43089;DHT22;28709;52.030;5.652;2024-03-23T14:24:54;8.80;99.90
43089;DHT22;28709;52.030;5.652;2024-03-23T14:27:20;8.60;99.90
43089;DHT22;28709;52.030;5.652;2024-03-23T14:29:47;8.50;99.90
43089;DHT22;28709;52.030;5.652;2024-03-23T14:32:13;8.50;99.90
43089;DHT22;28709;52.030;5.652;2024-03-23T14:34:38;8.60;99.90
43089;DHT22;28709;52.030;5.652;2024-03-23T14:37:04;8.90;99.90
43089;DHT22;28709;52.030;5.652;2024-03-23T14:39:32;9.10;99.90
43089;DHT22;28709;52.030;5.652;2024-03-23T14:42:02;9.20;99.90
43089;DHT22;28709;52.030;5.652;2024-03-23T14:44:28;9.30;99.90
43089;DHT22;28709;52.030;5.652;2024-03-23T14:46:54;9.40;99.90
43089;DHT22;28709;52.030;5.652;2024-03-23T14:49:21;9.50;99.90
43089;DHT22;28709;52.030;5.652;2024-03-23T14:51:46;9.70;99.90
43089;DHT22;28709;52.030;5.652;2024-03-23T14:54:12;9.90;99.90
43089;DHT22;28709;52.030;5.652;2024-03-23T14:56:38;10.00;99.90
43089;DHT22;28709;52.030;5.652;2024-03-23T14:59:04;10.00;99.50
43089;DHT22;28709;52.030;5.652;2024-03-23T15:01:30;10.00;99.90
43089;DHT22;28709;52.030;5.652;2024-03-23T15:03:56;10.10;99.90
43089;DHT22;28709;52.030;5.652;2024-03-23T15:06:21;10.20;99.90
43089;DHT22;28709;52.030;5.652;2024-03-23T15:08:47;10.20;99.70
43089;DHT22;28709;52.030;5.652;2024-03-23T15:11:12;10.20;99.90
43089;DHT22;28709;52.030;5.652;2024-03-23T15:13:38;10.00;99.90
43089;DHT22;28709;52.030;5.652;2024-03-23T15:16:05;9.90;99.90
43089;DHT22;28709;52.030;5.652;2024-03-23T15:18:32;9.90;99.90
43089;DHT22;28709;52.030;5.652;2024-03-23T15:20:59;9.90;99.90
43089;DHT22;28709;52.030;5.652;2024-03-23T15:23:28;10.00;99.90
43089;DHT22;28709;52.030;5.652;2024-03-23T15:25:58;10.20;99.90
43089;DHT22;28709;52.030;5.652;2024-03-23T15:28:24;10.30;99.90
43089;DHT22;28709;52.030;5.652;2024-03-23T15:30:50;10.20;99.90
43089;DHT22;28709;52.030;5.652;2024-03-23T15:33:15;10.00;99.90
43089;DHT22;28709;52.030;5.652;2024-03-23T15:35:42;9.90;99.90
43089;DHT22;28709;52.030;5.652;2024-03-23T15:38:08;9.80;99.90
43089;DHT22;28709;52.030;5.652;2024-03-23T15:40:35;9.60;99.90
43089;DHT22;28709;52.030;5.652;2024-03-23T15:43:00;9.60;99.90
43089;DHT22;28709;52.030;5.652;2024-03-23T15:45:26;9.50;99.90
43089;DHT22;28709;52.030;5.652;2024-03-23T15:47:52;9.40;99.90
43089;DHT22;28709;52.030;5.652;2024-03-23T15:50:17;9.30;99.90
43089;DHT22;28709;52.030;5.652;2024-03-23T15:52:43;9.20;99.90
43089;DHT22;28709;52.030;5.652;2024-03-23T15:55:09;9.00;99.90
43089;DHT22;28709;52.030;5.652;2024-03-23T15:57:35;8.90;99.90
43089;DHT22;28709;52.030;5.652;2024-03-23T16:00:02;8.80;99.90
43089;DHT22;28709;52.030;5.652;2024-03-23T16:02:28;8.80;99.90
43089;DHT22;28709;52.030;5.652;2024-03-23T16:04:54;8.70;99.90
43089;DHT22;28709;52.030;5.652;2024-03-23T16:07:21;8.60;99.90
43089;DHT22;28709;52.030;5.652;2024-03-23T16:09:46;8.60;99.90
43089;DHT22;28709;52.030;5.652;2024-03-23T16:12:12;8.70;99.90
43089;DHT22;28709;52.030;5.652;2024-03-23T16:14:38;8.60;99.90
43089;DHT22;28709;52.030;5.652;2024-03-23T16:17:03;8.60;99.90
43089;DHT22;28709;52.030;5.652;2024-03-23T16:19:29;8.60;99.90
43089;DHT22;28709;52.030;5.652;2024-03-23T16:21:55;8.50;99.90
43089;DHT22;28709;52.030;5.652;2024-03-23T16:24:21;8.60;99.90
43089;DHT22;28709;52.030;5.652;2024-03-23T16:26:47;8.60;99.90
43089;DHT22;28709;52.030;5.652;2024-03-23T16:29:12;8.60;99.90
43089;DHT22;28709;52.030;5.652;2024-03-23T16:31:38;8.60;99.90
43089;DHT22;28709;52.030;5.652;2024-03-23T16:34:04;8.60;99.90
43089;DHT22;28709;52.030;5.652;2024-03-23T16:36:30;8.50;99.90